Woosung, IL

2:46 AM CST on December 07, 2016 (GMT -0600)
Lakewood Subdivision (Dixon) | | Change Station

Elev 778 ft 41.87 °N, 89.51 °W | Updated 2 minutes ago

Clear
Clear
23.7 °F
Feels Like 19 °F
N
4.0
Wind Variable Wind from WSW
Gusts 5.0 mph

Today
High -- | Low -- °F
--% Chance of Precip.
Yesterday
High -- | Low -- °F
Precip. -- in
Pressure 30.11 in
Visibility 10.0 miles
Clouds Clear
Windchill 19 °F
Dew Point 19 °F
Humidity 83%
Rainfall 0.00 in
Snow Depth Not available.
7:12 AM 4:26 PM
Waxing Crescent, 50% visible
METAR KSQI 070756Z AUTO 27013KT 10SM CLR M03/M07 A3004 RMK AO2 SLP196 T10331067 FZRANO
Pressure 30.11 in
Visibility 10.0 miles
Clouds Clear
Windchill 19 °F
Dew Point 19 °F
Humidity 83%
Rainfall 0.00 in
Snow Depth Not available.
7:12 AM 4:26 PM
Waxing Crescent, 50% visible
METAR KSQI 070756Z AUTO 27013KT 10SM CLR M03/M07 A3004 RMK AO2 SLP196 T10331067 FZRANO

10-Day Weather Forecast

Almanac

Astronomy

Dec. 07, 2016 Rise Set
Actual Time
Civil Twilight
Nautical Twilight
Astronomical Twilight
Moon
Length of Visible Light
Length of Day
Tomorrow will be .
, % of the Moon is Illuminated

Today's Extremes

State Highs State Lows

Community

WunderPhotos

Upload Photos

1,956,104 photos uploaded!

WunderBlog® & News

Nearby

Air Quality

  Air Quality AQ Index Pollutant
Not available.

Snow Depth

Station Depth Elevation

Earthquake Activity

City Distance Mag. Time & Date
Minimum magnitude displayed is 2.5.

Coastal Water Temperatures

Place Temperature

Stations

Nearby Weather Stations

Station Location Temp. Windchill Dew Point Humidity Wind Precip. Elev Updated Type
                   

Watches & Warnings

There are currently no watches in effect.